Map

Track Data

SID SEASON NUMBER BASIN SUBBASIN NAME ISO_TIME NATURE LAT LON WMO_WIND WMO_PRES WMO_AGENCY TRACK_TYPE DIST2LAND LANDFALL IFLAG USA_AGENCY USA_ATCF_ID USA_LAT USA_LON USA_RECORD USA_STATUS USA_WIND USA_PRES USA_SSHS USA_R34_NE USA_R34_SE USA_R34_SW USA_R34_NW USA_R50_NE USA_R50_SE USA_R50_SW USA_R50_NW USA_R64_NE USA_R64_SE USA_R64_SW USA_R64_NW USA_POCI USA_ROCI USA_RMW USA_EYE TOKYO_LAT TOKYO_LON TOKYO_GRADE TOKYO_WIND TOKYO_PRES TOKYO_R50_DIR TOKYO_R50_LONG TOKYO_R50_SHORT TOKYO_R30_DIR TOKYO_R30_LONG TOKYO_R30_SHORT TOKYO_LAND CMA_LAT CMA_LON CMA_CAT CMA_WIND CMA_PRES HKO_LAT HKO_LON HKO_CAT HKO_WIND HKO_PRES NEWDELHI_LAT NEWDELHI_LON NEWDELHI_GRADE NEWDELHI_WIND NEWDELHI_PRES NEWDELHI_CI NEWDELHI_DP NEWDELHI_POCI REUNION_LAT REUNION_LON REUNION_TYPE REUNION_WIND REUNION_PRES REUNION_TNUM REUNION_CI REUNION_RMW REUNION_R34_NE REUNION_R34_SE REUNION_R34_SW REUNION_R34_NW REUNION_R50_NE REUNION_R50_SE REUNION_R50_SW REUNION_R50_NW REUNION_R64_NE REUNION_R64_SE REUNION_R64_SW REUNION_R64_NW BOM_LAT BOM_LON BOM_TYPE BOM_WIND BOM_PRES BOM_TNUM BOM_CI BOM_RMW BOM_R34_NE BOM_R34_SE BOM_R34_SW BOM_R34_NW BOM_R50_NE BOM_R50_SE BOM_R50_SW BOM_R50_NW BOM_R64_NE BOM_R64_SE BOM_R64_SW BOM_R64_NW BOM_ROCI BOM_POCI BOM_EYE BOM_POS_METHOD BOM_PRES_METHOD NADI_LAT NADI_LON NADI_CAT NADI_WIND NADI_PRES WELLINGTON_LAT WELLINGTON_LON WELLINGTON_WIND WELLINGTON_PRES DS824_LAT DS824_LON DS824_STAGE DS824_WIND DS824_PRES TD9636_LAT TD9636_LON TD9636_STAGE TD9636_WIND TD9636_PRES TD9635_LAT TD9635_LON TD9635_WIND TD9635_PRES TD9635_ROCI NEUMANN_LAT NEUMANN_LON NEUMANN_CLASS NEUMANN_WIND NEUMANN_PRES MLC_LAT MLC_LON MLC_CLASS MLC_WIND MLC_PRES USA_GUST BOM_GUST BOM_GUST_PER REUNION_GUST REUNION_GUST_PER USA_SEAHGT USA_SEARAD_NE USA_SEARAD_SE USA_SEARAD_SW USA_SEARAD_NW STORM_SPEED STORM_DIR
1932017S14141 1932 7 SP EA NOT_NAMED 1932-01-16 23:00:00 NR -14.0000 140.600 bom main 97 87 ______O___O___ -1 -13.9000 140.600 -14.1000 140.600 7 5 111
1932017S14141 1932 7 SP EA NOT_NAMED 1932-01-17 00:00:00 NR -14.0324 140.685 main 87 68 ______P___P___ -1 -13.9374 140.677 -14.1274 140.693 7 5 111
1932017S14141 1932 7 SP EA NOT_NAMED 1932-01-17 03:00:00 NR -14.1288 140.936 main 68 43 ______P___P___ -1 -14.0491 140.906 -14.2085 140.966 7 5 112
1932017S14141 1932 7 SP EA NOT_NAMED 1932-01-17 06:00:00 NR -14.2223 141.177 main 43 21 ______P___P___ -1 -14.1588 141.128 -14.2859 141.226 7 5 112
1932017S14141 1932 7 SP EA NOT_NAMED 1932-01-17 09:00:00 NR -14.3112 141.401 main 21 10 ______P___P___ -1 -14.2652 141.341 -14.3571 141.462 7 5 113
1932017S14141 1932 7 SP EA NOT_NAMED 1932-01-17 11:00:00 NR -14.3669 141.537 main 10 0 ______P___O___ -1 -14.3338 141.475 -14.4000 141.600 7 4 115
1932017S14141 1932 7 SP EA NOT_NAMED 1932-01-17 12:00:00 TS -14.3943 141.589 main 0 0 ______P__OP___ -1 -14.3672 141.538 -14.4000 141.500 TC -14.4199 141.663 7 3 119
1932017S14141 1932 7 SP EA NOT_NAMED 1932-01-17 13:00:00 TS -14.4219 141.641 bom main 0 0 ______O__PP___ -1 -14.4000 141.600 -14.4302 141.562 TC -14.4396 141.722 7 4 118
1932017S14141 1932 7 SP EA NOT_NAMED 1932-01-17 15:00:00 TS -14.4782 141.754 main 0 0 ______P__PP___ -1 -14.4644 141.718 -14.4925 141.690 TC -14.4812 141.838 7 4 118
1932017S14141 1932 7 SP EA NOT_NAMED 1932-01-17 18:00:00 TS -14.5758 141.944 main 0 0 ______P__PP___ -1 -14.5674 141.900 -14.5980 141.904 TC -14.5620 142.029 7 5 118
1932017S14141 1932 7 SP EA NOT_NAMED 1932-01-17 21:00:00 TS -14.7026 142.187 main 0 0 ______P__PP___ -1 -14.6939 142.117 -14.7295 142.166 TC -14.6844 142.279 7 6 119
1932017S14141 1932 7 SP EA NOT_NAMED 1932-01-17 23:00:00 TS -14.8127 142.393 994 bom main 0 0 ______O__PO___ -1 -14.8000 142.300 994 4 -14.8380 142.379 TC -14.8000 142.500 7 7 119
1932017S14141 1932 7 SP EA NOT_NAMED 1932-01-18 00:00:00 TS -14.8792 142.522 main 0 0 ______P__OP___ -1 -14.8642 142.420 -14.9000 142.500 TC 40 994 -14.8735 142.646 7 10 118
1932017S14141 1932 7 SP EA NOT_NAMED 1932-01-18 03:00:00 TS -15.1154 142.975 main 0 0 ______P__PP___ -1 -15.0902 142.845 -15.1183 142.923 TC -15.1378 143.157 7 11 119
1932017S14141 1932 7 SP EA NOT_NAMED 1932-01-18 06:00:00 TS -15.3941 143.499 main 0 0 ______P__PP___ -1 -15.3570 143.346 -15.3771 143.414 TC -15.4482 143.736 7 12 119
1932017S14141 1932 7 SP EA NOT_NAMED 1932-01-18 09:00:00 TS -15.6993 144.056 main 0 0 ______P__PP___ -1 -15.6528 143.894 -15.6654 143.946 TC -15.7796 144.327 7 12 120
1932017S14141 1932 7 SP EA NOT_NAMED 1932-01-18 11:00:00 TS -15.9097 144.426 main 0 0 ______P__PO___ -1 -15.8604 144.269 -15.8686 144.309 TC -16.0000 144.700 7 12 121
1932017S14141 1932 7 SP EA NOT_NAMED 1932-01-18 12:00:00 TS -16.0152 144.605 main 0 0 ______P__PP___ -1 -15.9660 144.456 -15.9723 144.490 TC -16.1072 144.868 7 12 122
1932017S14141 1932 7 SP EA NOT_NAMED 1932-01-18 15:00:00 TS -16.3350 145.123 main 0 0 ______P__PP___ -1 -16.2854 145.002 -16.2873 145.018 TC -16.4323 145.349 7 11 124
1932017S14141 1932 7 SP EA NOT_NAMED 1932-01-18 18:00:00 TS -16.6492 145.596 bom main 10 0 ______O__OP___ -1 -16.6000 145.500 -16.6000 145.500 TC -16.7476 145.788 7 11 126
1932017S14141 1932 7 SP EA NOT_NAMED 1932-01-18 21:00:00 TS -16.9500 146.009 main 10 10 ______P__PP___ -1 -16.9067 145.933 -16.9093 145.918 TC -17.0342 146.175 7 10 128
1932017S14141 1932 7 SP EA NOT_NAMED 1932-01-18 23:00:00 TS -17.1357 146.259 bom main 38 30 ______O__PO___ -1 -17.1000 146.200 -17.1071 146.177 TC -17.2000 146.400 7 9 128
1932017S14141 1932 7 SP EA NOT_NAMED 1932-01-19 00:00:00 TS -17.2195 146.377 main 38 33 ______P__OP___ -1 -17.1887 146.327 -17.2000 146.300 TC -17.2699 146.503 7 8 126
1932017S14141 1932 7 SP EA NOT_NAMED 1932-01-19 03:00:00 TS -17.4398 146.694 main 63 63 ______P__PP___ -1 -17.4258 146.672 -17.4469 146.642 TC -17.4468 146.769 7 7 125
1932017S14141 1932 7 SP EA NOT_NAMED 1932-01-19 06:00:00 TS -17.6211 146.968 main 95 95 ______P__PP___ -1 -17.6241 146.971 -17.6499 146.947 TC -17.5891 146.987 7 6 124
1932017S14141 1932 7 SP EA NOT_NAMED 1932-01-19 09:00:00 TS -17.7735 147.210 main 116 116 ______P__PP___ -1 -17.7897 147.233 -17.8155 147.221 TC -17.7155 147.177 7 5 123
1932017S14141 1932 7 SP EA NOT_NAMED 1932-01-19 11:00:00 TS -17.8643 147.360 main 138 138 ______P__PO___ -1 -17.8847 147.391 -17.9081 147.388 TC -17.8000 147.300 7 5 122
1932017S14141 1932 7 SP EA NOT_NAMED 1932-01-19 12:00:00 TS -17.9094 147.433 main 138 138 ______P__PP___ -1 -17.9283 147.466 -17.9498 147.468 TC -17.8499 147.366 7 5 122
1932017S14141 1932 7 SP EA NOT_NAMED 1932-01-19 15:00:00 TS -18.0350 147.643 main 152 148 ______P__PP___ -1 -18.0459 147.677 -18.0592 147.695 TC -17.9998 147.559 7 5 122
1932017S14141 1932 7 SP EA NOT_NAMED 1932-01-19 18:00:00 TS -18.1493 147.843 main 151 138 ______P__PP___ -1 -18.1481 147.875 -18.1499 147.905 TC -18.1497 147.750 7 4 121
1932017S14141 1932 7 SP EA NOT_NAMED 1932-01-19 21:00:00 TS -18.2588 148.036 main 138 138 ______P__PP___ -1 -18.2408 148.069 -18.2281 148.105 TC -18.2998 147.952 7 4 121
1932017S14141 1932 7 SP EA NOT_NAMED 1932-01-19 23:00:00 TS -18.3353 148.167 bom main 149 139 ______O__PO___ -1 -18.3000 148.200 -18.2764 148.235 TC -18.4000 148.100 7 4 123
1932017S14141 1932 7 SP EA NOT_NAMED 1932-01-20 00:00:00 TS -18.3820 148.233 main 139 138 ______P__OP___ -1 -18.3295 148.267 -18.3000 148.300 TC -18.4549 148.183 7 5 123
1932017S14141 1932 7 SP EA NOT_NAMED 1932-01-20 03:00:00 NR -18.5198 148.461 main 153 145 ______P___P___ -1 -18.4177 148.473 TC -18.6218 148.448 7 5 120
1932017S14141 1932 7 SP EA NOT_NAMED 1932-01-20 06:00:00 NR -18.6439 148.709 main 161 148 ______P___P___ -1 -18.5058 148.688 TC -18.7819 148.730 7 5 117
1932017S14141 1932 7 SP EA NOT_NAMED 1932-01-20 09:00:00 NR -18.7583 148.962 main 152 152 ______P___P___ -1 -18.5936 148.910 TC -18.9229 149.014 7 5 115
1932017S14141 1932 7 SP EA NOT_NAMED 1932-01-20 11:00:00 NR -18.8260 149.130 main 158 155 ______P___O___ -1 -18.6521 149.061 TC -19.0000 149.200 7 5 113
1932017S14141 1932 7 SP EA NOT_NAMED 1932-01-20 12:00:00 NR -18.8568 149.214 main 155 155 ______P___P___ -1 -18.6812 149.137 TC -19.0323 149.290 7 5 110
1932017S14141 1932 7 SP EA NOT_NAMED 1932-01-20 15:00:00 NR -18.9374 149.460 main 172 162 ______P___P___ -1 -18.7686 149.369 TC -19.1062 149.551 7 5 108
1932017S14141 1932 7 SP EA NOT_NAMED 1932-01-20 18:00:00 NR -19.0046 149.702 main 173 173 ______P___P___ -1 -18.8556 149.604 TC -19.1535 149.800 7 5 105
1932017S14141 1932 7 SP EA NOT_NAMED 1932-01-20 21:00:00 NR -19.0632 149.941 main 176 176 ______P___P___ -1 -18.9424 149.841 TC -19.1841 150.041 7 5 104
1932017S14141 1932 7 SP EA NOT_NAMED 1932-01-20 23:00:00 NR -19.1000 150.100 bom main 191 ______O___O___ -1 -19.0000 150.000 TC -19.2000 150.200 7 5 104

Digital Typhoon Data and Search

About IBTrACS Database

This database is a web-friendly format of International Best Track Archive for Climate Stewardship (IBTrACS), a global best track data archive curated by NOAA dating back to 1842.

Updated: 2021-10-08